createdAt,value
2023-04-27T00:01:48.772Z,17.51
2023-04-27T00:04:16.891Z,17.52
2023-04-27T00:06:45.048Z,17.60
2023-04-27T00:09:13.042Z,17.60
2023-04-27T00:11:41.184Z,17.43
2023-04-27T00:14:09.053Z,17.39
2023-04-27T00:16:37.100Z,17.49
2023-04-27T00:19:04.762Z,17.52
2023-04-27T00:21:32.749Z,17.40
2023-04-27T00:24:00.407Z,17.33
2023-04-27T00:26:29.563Z,17.39
2023-04-27T00:28:57.302Z,17.60
2023-04-27T00:31:26.876Z,17.19
2023-04-27T00:33:54.482Z,17.24
2023-04-27T00:36:22.480Z,17.29
2023-04-27T00:38:50.101Z,17.31
2023-04-27T00:41:18.087Z,17.16
2023-04-27T00:43:46.323Z,17.07
2023-04-27T00:46:14.859Z,17.05
2023-04-27T00:48:43.056Z,16.96
2023-04-27T00:51:11.082Z,16.90
2023-04-27T00:53:39.026Z,16.94
2023-04-27T00:56:07.609Z,16.82
2023-04-27T00:58:35.353Z,16.70
2023-04-27T01:01:06.002Z,16.56
2023-04-27T01:03:33.841Z,16.57
2023-04-27T01:06:02.068Z,16.57
2023-04-27T01:08:29.840Z,16.54
2023-04-27T01:10:57.899Z,16.51
2023-04-27T01:13:25.636Z,16.51
2023-04-27T01:15:53.691Z,16.40
2023-04-27T01:18:21.291Z,16.46
2023-04-27T01:20:49.341Z,16.42
2023-04-27T01:23:17.521Z,16.36
2023-04-27T01:25:45.763Z,16.36
2023-04-27T01:28:13.428Z,16.35
2023-04-27T01:30:41.405Z,16.18
2023-04-27T01:33:09.060Z,16.38
2023-04-27T01:35:37.295Z,16.10
2023-04-27T01:38:04.902Z,16.18
2023-04-27T01:40:32.863Z,16.03
2023-04-27T01:43:01.178Z,15.89
2023-04-27T01:45:31.061Z,15.71
2023-04-27T01:48:00.934Z,15.59
2023-04-27T01:50:28.970Z,15.66
2023-04-27T01:52:56.684Z,15.75
2023-04-27T01:55:24.587Z,15.77
2023-04-27T01:57:52.288Z,15.83
2023-04-27T02:00:20.597Z,15.70
2023-04-27T02:02:48.347Z,15.53
2023-04-27T02:05:17.658Z,15.69
2023-04-27T02:07:47.285Z,15.82
2023-04-27T02:10:15.267Z,15.61
2023-04-27T02:12:42.917Z,15.73
2023-04-27T02:15:11.126Z,15.61
2023-04-27T02:17:39.755Z,15.57
2023-04-27T02:20:08.121Z,15.74
2023-04-27T02:22:35.803Z,15.55
2023-04-27T02:25:05.639Z,15.45
2023-04-27T02:27:33.424Z,15.52
2023-04-27T02:30:05.492Z,15.43
2023-04-27T02:32:33.776Z,15.35
2023-04-27T02:35:02.242Z,15.45
2023-04-27T02:37:30.815Z,15.45
2023-04-27T02:39:58.825Z,15.58
2023-04-27T02:42:26.683Z,15.23
2023-04-27T02:44:54.715Z,15.14
2023-04-27T02:47:22.314Z,15.15
2023-04-27T02:49:50.261Z,15.04
2023-04-27T02:52:17.913Z,15.12
2023-04-27T02:54:46.006Z,14.90
2023-04-27T02:57:13.703Z,15.07
2023-04-27T02:59:41.713Z,14.85
2023-04-27T03:02:09.638Z,14.77
2023-04-27T03:04:39.005Z,14.98
2023-04-27T03:07:06.756Z,14.88
2023-04-27T03:09:34.739Z,14.70
2023-04-27T03:12:02.823Z,14.88
2023-04-27T03:14:30.838Z,15.03
2023-04-27T03:16:58.640Z,14.82
2023-04-27T03:19:26.597Z,14.82
2023-04-27T03:21:54.158Z,14.79
2023-04-27T03:24:25.688Z,14.62
2023-04-27T03:26:53.429Z,14.60
2023-04-27T03:29:22.328Z,14.53
2023-04-27T03:31:50.054Z,14.61
2023-04-27T03:34:18.039Z,14.58
2023-04-27T03:36:46.290Z,14.50
2023-04-27T03:39:14.438Z,14.34
2023-04-27T03:41:42.349Z,14.46
2023-04-27T03:44:12.725Z,14.46
2023-04-27T03:46:40.415Z,14.45
2023-04-27T03:49:08.957Z,14.59
2023-04-27T03:51:38.534Z,14.82
2023-04-27T03:54:06.394Z,14.76
2023-04-27T03:56:34.076Z,14.76
2023-04-27T03:59:02.048Z,14.75
2023-04-27T04:01:34.395Z,14.85
2023-04-27T04:04:02.607Z,15.11
2023-04-27T04:06:33.120Z,14.88
2023-04-27T04:09:03.644Z,14.99
2023-04-27T04:11:31.771Z,15.01
2023-04-27T04:14:01.275Z,14.93
2023-04-27T04:16:28.882Z,15.02
2023-04-27T04:18:56.685Z,14.97
2023-04-27T04:21:24.873Z,14.84
2023-04-27T04:23:53.061Z,15.04
2023-04-27T04:26:23.679Z,14.99
2023-04-27T04:28:52.577Z,15.00
2023-04-27T04:31:21.972Z,14.85
2023-04-27T04:33:50.695Z,14.74
2023-04-27T04:36:18.664Z,14.88
2023-04-27T04:38:47.402Z,14.77
2023-04-27T04:41:16.693Z,14.69
2023-04-27T04:43:44.602Z,14.79
2023-04-27T04:46:12.087Z,14.80
2023-04-27T04:48:40.066Z,14.97
2023-04-27T04:51:07.724Z,14.94
2023-04-27T04:53:37.548Z,15.11
2023-04-27T04:56:12.313Z,15.27
2023-04-27T04:58:40.538Z,15.13
2023-04-27T05:01:08.640Z,15.57
2023-04-27T05:03:36.742Z,15.31
2023-04-27T05:06:04.493Z,15.32
2023-04-27T05:08:32.442Z,15.17
2023-04-27T05:10:59.966Z,15.28
2023-04-27T05:13:28.284Z,15.10
2023-04-27T05:15:55.862Z,15.15
2023-04-27T05:18:23.879Z,15.17
2023-04-27T05:20:51.379Z,15.38
2023-04-27T05:23:19.235Z,15.46
2023-04-27T05:25:46.665Z,15.48
2023-04-27T05:28:14.689Z,15.73
2023-04-27T05:30:42.628Z,15.72
2023-04-27T05:33:10.553Z,15.89
2023-04-27T05:35:38.038Z,15.90
2023-04-27T05:38:05.955Z,16.00
2023-04-27T05:40:33.492Z,16.27
2023-04-27T05:43:05.699Z,16.48
2023-04-27T05:45:33.582Z,16.54
2023-04-27T05:48:01.569Z,16.55
2023-04-27T05:50:29.146Z,16.78
2023-04-27T05:52:57.019Z,17.04
2023-04-27T05:55:24.533Z,17.17
2023-04-27T05:58:06.682Z,17.34
2023-04-27T06:00:37.385Z,17.63
2023-04-27T06:03:05.378Z,17.51
2023-04-27T06:05:34.723Z,17.79
2023-04-27T06:08:02.915Z,17.85
2023-04-27T06:10:30.642Z,17.90
2023-04-27T06:12:58.425Z,18.13
2023-04-27T06:15:26.811Z,18.24
2023-04-27T06:17:54.728Z,18.27
2023-04-27T06:20:22.391Z,18.31
2023-04-27T06:22:49.795Z,18.37
2023-04-27T06:25:17.632Z,18.30
2023-04-27T06:27:45.198Z,18.33
2023-04-27T06:30:13.165Z,18.65
2023-04-27T06:32:42.726Z,18.85
2023-04-27T06:35:11.106Z,18.81
2023-04-27T06:37:38.690Z,18.91
2023-04-27T06:40:07.123Z,18.76
2023-04-27T06:42:35.000Z,19.11
2023-04-27T06:45:02.957Z,19.39
2023-04-27T06:47:30.632Z,19.42
2023-04-27T06:49:58.485Z,19.27
2023-04-27T06:52:26.108Z,19.22
2023-04-27T06:54:54.257Z,19.93
2023-04-27T06:57:21.947Z,20.29
2023-04-27T06:59:49.785Z,20.45
2023-04-27T07:02:17.659Z,20.42
2023-04-27T07:04:46.971Z,20.19
2023-04-27T07:07:14.664Z,20.56
2023-04-27T07:09:43.845Z,20.79
2023-04-27T07:12:11.510Z,20.66
2023-04-27T07:14:39.621Z,20.81
2023-04-27T07:17:07.118Z,20.59
2023-04-27T07:19:34.966Z,20.74
2023-04-27T07:22:02.645Z,20.82
2023-04-27T07:24:30.470Z,21.18
2023-04-27T07:26:58.235Z,21.06
2023-04-27T07:29:29.521Z,21.37
2023-04-27T07:31:57.178Z,21.18
2023-04-27T07:34:25.168Z,21.05
2023-04-27T07:36:54.748Z,21.07
2023-04-27T07:39:22.828Z,21.28
2023-04-27T07:41:51.896Z,21.59
2023-04-27T07:44:19.910Z,21.51
2023-04-27T07:46:49.155Z,21.56
2023-04-27T07:49:17.197Z,21.44
2023-04-27T07:51:44.724Z,21.26
2023-04-27T07:54:12.657Z,21.41
2023-04-27T07:56:43.321Z,21.64
2023-04-27T07:59:11.746Z,21.66
2023-04-27T08:01:39.751Z,21.82
2023-04-27T08:04:07.909Z,21.70
2023-04-27T08:06:36.543Z,22.15
2023-04-27T08:09:05.248Z,21.36
2023-04-27T08:11:32.834Z,21.86
2023-04-27T08:14:00.669Z,21.89
2023-04-27T08:16:28.884Z,21.73
2023-04-27T08:18:58.538Z,21.89
2023-04-27T08:21:28.757Z,21.99
2023-04-27T08:23:56.697Z,21.80
2023-04-27T08:26:26.276Z,21.88
2023-04-27T08:28:56.497Z,21.98
2023-04-27T08:31:24.654Z,22.19
2023-04-27T08:33:53.133Z,21.60
2023-04-27T08:36:29.327Z,21.94
2023-04-27T08:38:57.174Z,22.52
2023-04-27T08:41:24.754Z,21.92
2023-04-27T08:43:53.804Z,22.17
2023-04-27T08:46:22.080Z,21.94
2023-04-27T08:48:51.283Z,21.61
2023-04-27T08:51:18.833Z,21.99
2023-04-27T08:53:51.765Z,22.20
2023-04-27T08:56:19.828Z,22.53
2023-04-27T08:58:47.624Z,22.40
2023-04-27T09:01:15.250Z,22.86
2023-04-27T09:03:43.333Z,23.38
2023-04-27T09:06:11.384Z,22.17
2023-04-27T09:08:47.468Z,22.27
2023-04-27T09:11:16.148Z,22.46
2023-04-27T09:13:45.662Z,21.94
2023-04-27T09:16:17.303Z,23.05
2023-04-27T09:18:45.879Z,22.91
2023-04-27T09:21:22.212Z,23.07
2023-04-27T09:23:50.144Z,22.96
2023-04-27T09:26:22.365Z,23.48
2023-04-27T09:28:51.558Z,23.73
2023-04-27T09:31:19.257Z,23.82
2023-04-27T09:33:54.901Z,23.50
2023-04-27T09:36:22.829Z,23.66
2023-04-27T09:38:52.779Z,24.05
2023-04-27T09:41:20.228Z,23.40
2023-04-27T09:43:48.099Z,22.91
2023-04-27T09:46:16.101Z,23.57
2023-04-27T09:48:43.928Z,24.46
2023-04-27T09:51:11.513Z,24.47
2023-04-27T09:53:45.293Z,24.66
2023-04-27T09:56:28.553Z,24.21
2023-04-27T09:59:15.493Z,24.72
2023-04-27T10:01:47.672Z,24.40
2023-04-27T10:04:34.663Z,24.48
2023-04-27T10:07:02.276Z,25.07
2023-04-27T10:09:51.524Z,24.97
2023-04-27T10:12:20.658Z,24.12
2023-04-27T10:14:56.075Z,24.07
2023-04-27T10:17:31.469Z,24.10
2023-04-27T10:20:10.076Z,24.37
2023-04-27T10:22:44.868Z,24.46
2023-04-27T10:25:16.667Z,24.96
2023-04-27T10:27:58.253Z,23.64
2023-04-27T10:30:27.574Z,23.56
2023-04-27T10:32:56.579Z,24.32
2023-04-27T10:35:34.869Z,25.50
2023-04-27T10:38:06.671Z,25.64
2023-04-27T10:40:36.619Z,26.02
2023-04-27T10:43:10.496Z,25.53
2023-04-27T10:45:38.544Z,25.17
2023-04-27T10:48:06.246Z,25.45
2023-04-27T10:50:34.247Z,26.09
2023-04-27T10:53:03.922Z,25.72
2023-04-27T10:55:33.320Z,25.27
2023-04-27T10:58:02.134Z,25.13
2023-04-27T11:00:32.631Z,26.00
2023-04-27T11:03:17.246Z,26.01
2023-04-27T11:05:47.111Z,25.65
2023-04-27T11:08:16.288Z,25.17
2023-04-27T11:10:50.225Z,23.95
2023-04-27T11:13:19.296Z,24.78
2023-04-27T11:15:58.143Z,25.82
2023-04-27T11:18:26.735Z,25.46
2023-04-27T11:21:07.865Z,24.98
2023-04-27T11:23:38.325Z,26.16
2023-04-27T11:26:19.561Z,26.13
2023-04-27T11:29:00.169Z,25.73
2023-04-27T11:31:38.355Z,25.52
2023-04-27T11:34:07.954Z,25.31
2023-04-27T11:36:36.447Z,24.06
2023-04-27T11:39:06.596Z,24.23
2023-04-27T11:41:35.884Z,25.02
2023-04-27T11:44:07.848Z,25.53
2023-04-27T11:46:37.038Z,26.63
2023-04-27T11:49:05.170Z,26.31
2023-04-27T11:51:33.667Z,26.55
2023-04-27T11:54:05.148Z,25.65
2023-04-27T11:56:34.887Z,25.36
2023-04-27T11:59:02.490Z,25.56
2023-04-27T12:01:37.481Z,25.82
2023-04-27T12:04:05.867Z,26.38
2023-04-27T12:06:34.046Z,25.34
2023-04-27T12:09:01.849Z,26.81
2023-04-27T12:11:29.631Z,25.77
2023-04-27T12:13:57.589Z,25.78
2023-04-27T12:16:25.570Z,26.00
2023-04-27T12:18:53.500Z,25.98
2023-04-27T12:21:21.495Z,26.17
2023-04-27T12:23:48.997Z,25.87
2023-04-27T12:26:16.816Z,26.10
2023-04-27T12:28:44.371Z,26.23
2023-04-27T12:31:14.371Z,26.23
2023-04-27T12:33:42.190Z,26.06
2023-04-27T12:36:10.072Z,25.99
2023-04-27T12:38:37.724Z,26.71
2023-04-27T12:41:05.866Z,25.81
2023-04-27T12:43:33.449Z,24.91
2023-04-27T12:46:01.402Z,25.96
2023-04-27T12:48:29.084Z,25.68
2023-04-27T12:50:57.019Z,25.86
2023-04-27T12:53:24.672Z,26.93
2023-04-27T12:55:53.614Z,27.09
2023-04-27T12:58:21.747Z,28.45
2023-04-27T13:00:49.581Z,27.31
2023-04-27T13:03:17.373Z,27.44
2023-04-27T13:05:45.850Z,27.44
2023-04-27T13:08:13.461Z,26.51
2023-04-27T13:10:42.311Z,26.74
2023-04-27T13:13:09.899Z,28.02
2023-04-27T13:15:38.824Z,26.44
2023-04-27T13:18:06.850Z,26.66
2023-04-27T13:20:34.836Z,26.24
2023-04-27T13:23:03.145Z,25.71
2023-04-27T13:25:31.170Z,25.89
2023-04-27T13:27:58.762Z,25.33
2023-04-27T13:30:26.651Z,25.73
2023-04-27T13:32:54.299Z,25.02
2023-04-27T13:35:23.937Z,24.89
2023-04-27T13:37:53.988Z,25.62
2023-04-27T13:40:22.279Z,25.82
2023-04-27T13:42:49.818Z,27.05
2023-04-27T13:45:17.750Z,26.70
2023-04-27T13:47:45.418Z,25.66
2023-04-27T13:50:13.312Z,24.78
2023-04-27T13:52:41.088Z,24.54
2023-04-27T13:55:11.001Z,24.75
2023-04-27T13:57:38.550Z,25.86
2023-04-27T14:00:11.731Z,26.83
2023-04-27T14:02:39.697Z,27.74
2023-04-27T14:05:08.793Z,28.39
2023-04-27T14:07:36.273Z,28.66
2023-04-27T14:10:04.744Z,28.39
2023-04-27T14:12:32.441Z,28.10
2023-04-27T14:15:02.650Z,27.43
2023-04-27T14:17:30.224Z,26.71
2023-04-27T14:19:59.424Z,27.62
2023-04-27T14:22:26.975Z,27.57
2023-04-27T14:24:56.672Z,27.58
2023-04-27T14:27:24.362Z,26.58
2023-04-27T14:29:52.208Z,26.78
2023-04-27T14:32:19.911Z,27.80
2023-04-27T14:34:49.078Z,27.95
2023-04-27T14:37:16.660Z,28.08
2023-04-27T14:39:45.380Z,27.96
2023-04-27T14:42:13.118Z,28.30
2023-04-27T14:44:41.115Z,28.15
2023-04-27T14:47:08.698Z,28.71
2023-04-27T14:49:36.725Z,28.83
2023-04-27T14:52:06.776Z,29.01
2023-04-27T14:54:35.781Z,28.90
2023-04-27T14:57:03.425Z,27.84
2023-04-27T14:59:32.644Z,28.92
2023-04-27T15:02:00.702Z,29.17
2023-04-27T15:04:28.834Z,29.01
2023-04-27T15:06:56.541Z,29.22
2023-04-27T15:09:25.619Z,28.95
2023-04-27T15:11:53.227Z,28.86
2023-04-27T15:14:21.086Z,27.40
2023-04-27T15:16:49.682Z,27.90
2023-04-27T15:19:17.597Z,27.71
2023-04-27T15:21:45.131Z,28.28
2023-04-27T15:24:13.034Z,28.18
2023-04-27T15:26:41.369Z,27.37
2023-04-27T15:29:09.234Z,27.58
2023-04-27T15:31:37.253Z,27.77
2023-04-27T15:34:06.341Z,27.95
2023-04-27T15:36:34.789Z,27.41
2023-04-27T15:39:02.710Z,27.34
2023-04-27T15:41:30.219Z,27.19
2023-04-27T15:43:59.277Z,28.00
2023-04-27T15:46:26.890Z,28.29
2023-04-27T15:48:54.819Z,28.33
2023-04-27T15:51:22.346Z,28.40
2023-04-27T15:53:50.206Z,28.29
2023-04-27T15:56:17.803Z,27.89
2023-04-27T15:58:47.094Z,27.85
2023-04-27T16:01:14.727Z,27.42
2023-04-27T16:03:53.237Z,27.59
2023-04-27T16:06:21.022Z,27.77
2023-04-27T16:08:49.012Z,27.91
2023-04-27T16:11:20.036Z,27.67
2023-04-27T16:13:47.937Z,27.42
2023-04-27T16:16:15.738Z,27.32
2023-04-27T16:18:43.820Z,26.84
2023-04-27T16:21:11.520Z,27.16
2023-04-27T16:23:39.295Z,27.43
2023-04-27T16:26:06.874Z,27.17
2023-04-27T16:28:35.069Z,27.02
2023-04-27T16:31:02.622Z,27.06
2023-04-27T16:33:30.746Z,27.02
2023-04-27T16:35:58.237Z,26.55
2023-04-27T16:38:26.170Z,26.58
2023-04-27T16:40:56.217Z,26.68
2023-04-27T16:43:25.560Z,26.58
2023-04-27T16:45:53.160Z,26.53
2023-04-27T16:48:22.542Z,26.46
2023-04-27T16:50:50.001Z,26.23
2023-04-27T16:53:21.203Z,26.53
2023-04-27T16:55:48.909Z,26.19
2023-04-27T16:58:16.792Z,25.97
2023-04-27T17:00:44.355Z,26.07
2023-04-27T17:03:12.358Z,26.10
2023-04-27T17:05:39.980Z,25.85
2023-04-27T17:08:08.867Z,26.01
2023-04-27T17:10:36.979Z,25.23
2023-04-27T17:13:05.144Z,25.69
2023-04-27T17:15:32.685Z,25.59
2023-04-27T17:18:02.731Z,25.19
2023-04-27T17:20:30.592Z,25.03
2023-04-27T17:22:58.434Z,24.89
2023-04-27T17:25:25.940Z,24.93
2023-04-27T17:27:53.813Z,25.15
2023-04-27T17:30:21.422Z,24.33
2023-04-27T17:32:49.316Z,24.31
2023-04-27T17:35:16.882Z,24.14
2023-04-27T17:37:44.759Z,23.78
2023-04-27T17:40:12.891Z,23.91
2023-04-27T17:42:40.768Z,23.46
2023-04-27T17:45:11.764Z,23.45
2023-04-27T17:47:39.565Z,23.31
2023-04-27T17:50:07.600Z,23.21
2023-04-27T17:52:35.926Z,23.43
2023-04-27T17:55:03.505Z,23.25
2023-04-27T17:57:31.261Z,23.53
2023-04-27T17:59:58.858Z,22.62
2023-04-27T18:02:27.018Z,22.33
2023-04-27T18:04:54.670Z,22.50
2023-04-27T18:07:23.488Z,22.50
2023-04-27T18:09:51.121Z,22.74
2023-04-27T18:12:19.059Z,22.53
2023-04-27T18:14:46.608Z,22.04
2023-04-27T18:17:14.546Z,22.44
2023-04-27T18:19:42.069Z,22.77
2023-04-27T18:22:10.198Z,22.52
2023-04-27T18:24:37.742Z,22.48
2023-04-27T18:27:05.676Z,22.28
2023-04-27T18:29:33.231Z,22.52
2023-04-27T18:32:01.920Z,22.65
2023-04-27T18:34:29.505Z,22.48
2023-04-27T18:36:57.449Z,22.37
2023-04-27T18:39:25.151Z,22.41
2023-04-27T18:41:53.190Z,22.28
2023-04-27T18:44:20.798Z,22.21
2023-04-27T18:46:48.693Z,22.01
2023-04-27T18:49:16.571Z,22.17
2023-04-27T18:51:45.585Z,21.83
2023-04-27T18:54:13.838Z,21.98
2023-04-27T18:56:41.805Z,21.92
2023-04-27T18:59:09.321Z,21.85
2023-04-27T19:01:38.231Z,22.00
2023-04-27T19:04:06.799Z,21.84
2023-04-27T19:06:34.755Z,21.90
2023-04-27T19:09:02.312Z,22.02
2023-04-27T19:11:30.466Z,21.79
2023-04-27T19:13:59.019Z,21.78
2023-04-27T19:16:27.131Z,21.60
2023-04-27T19:18:54.725Z,21.54
2023-04-27T19:21:22.557Z,21.64
2023-04-27T19:23:50.275Z,21.32
2023-04-27T19:26:18.160Z,21.33
2023-04-27T19:28:45.751Z,21.39
2023-04-27T19:31:13.955Z,21.35
2023-04-27T19:36:13.651Z,21.47
2023-04-27T19:38:41.469Z,21.14
2023-04-27T19:41:10.861Z,21.23
2023-04-27T19:43:38.496Z,21.17
2023-04-27T19:46:06.467Z,21.08
2023-04-27T19:48:34.198Z,21.06
2023-04-27T19:51:02.088Z,20.96
2023-04-27T19:53:30.220Z,20.93
2023-04-27T19:56:00.587Z,20.86
2023-04-27T19:58:28.407Z,20.82
2023-04-27T20:00:56.389Z,20.87
2023-04-27T20:03:24.179Z,20.82
2023-04-27T20:05:52.808Z,20.82
2023-04-27T20:08:20.794Z,20.93
2023-04-27T20:10:48.579Z,20.79
2023-04-27T20:13:16.213Z,20.77
2023-04-27T20:15:44.634Z,20.62
2023-04-27T20:18:12.464Z,20.53
2023-04-27T20:20:42.354Z,20.60
2023-04-27T20:23:10.010Z,20.49
2023-04-27T20:25:38.240Z,20.44
2023-04-27T20:28:05.898Z,20.58
2023-04-27T20:30:33.714Z,20.64
2023-04-27T20:33:03.794Z,20.63
2023-04-27T20:35:31.842Z,20.59
2023-04-27T20:38:00.338Z,20.53
2023-04-27T20:40:28.279Z,20.50
2023-04-27T20:42:55.739Z,20.52
2023-04-27T20:45:24.038Z,20.29
2023-04-27T20:47:52.347Z,20.32
2023-04-27T20:50:20.209Z,20.37
2023-04-27T20:52:47.700Z,20.06
2023-04-27T20:55:16.773Z,20.11
2023-04-27T20:57:44.399Z,20.15
2023-04-27T21:00:13.197Z,20.02
2023-04-27T21:02:41.141Z,20.03
2023-04-27T21:05:09.167Z,20.10
2023-04-27T21:07:36.894Z,19.97
2023-04-27T21:10:07.154Z,20.00
2023-04-27T21:12:34.823Z,19.98
2023-04-27T21:15:04.084Z,19.92
2023-04-27T21:17:31.678Z,20.09
2023-04-27T21:19:59.510Z,20.10
2023-04-27T21:22:27.131Z,20.05
2023-04-27T21:24:55.009Z,19.93
2023-04-27T21:27:22.682Z,20.01
2023-04-27T21:29:50.652Z,19.98
2023-04-27T21:32:18.247Z,19.82
2023-04-27T21:34:46.054Z,19.67
2023-04-27T21:37:13.632Z,19.77
2023-04-27T21:39:41.626Z,19.90
2023-04-27T21:42:09.253Z,19.75
2023-04-27T21:44:37.085Z,19.78
2023-04-27T21:47:04.608Z,19.75
2023-04-27T21:49:32.450Z,19.75
2023-04-27T21:51:59.963Z,19.80
2023-04-27T21:54:27.864Z,19.78
2023-04-27T21:56:55.407Z,19.55
2023-04-27T21:59:23.278Z,19.44
2023-04-27T22:01:51.085Z,19.45
2023-04-27T22:04:20.492Z,19.61
2023-04-27T22:06:49.010Z,19.41
2023-04-27T22:09:17.167Z,19.45
2023-04-27T22:11:44.875Z,19.52
2023-04-27T22:14:12.920Z,19.37
2023-04-27T22:16:40.732Z,19.32
2023-04-27T22:19:09.760Z,19.19
2023-04-27T22:21:37.736Z,19.14
2023-04-27T22:24:05.981Z,18.99
2023-04-27T22:26:33.557Z,19.18
2023-04-27T22:29:01.477Z,18.88
2023-04-27T22:31:30.332Z,18.73
2023-04-27T22:33:58.703Z,19.02
2023-04-27T22:36:26.875Z,18.81
2023-04-27T22:38:54.861Z,18.61
2023-04-27T22:41:22.658Z,18.56
2023-04-27T22:43:50.548Z,18.63
2023-04-27T22:46:18.054Z,18.55
2023-04-27T22:48:47.662Z,18.89
2023-04-27T22:51:15.098Z,18.55
2023-04-27T22:53:42.983Z,18.73
2023-04-27T22:56:10.652Z,18.40
2023-04-27T22:58:39.027Z,18.48
2023-04-27T23:01:07.070Z,18.42
2023-04-27T23:03:36.289Z,18.25
2023-04-27T23:06:05.250Z,18.14
2023-04-27T23:08:34.172Z,18.32
2023-04-27T23:11:03.098Z,18.27
2023-04-27T23:13:32.004Z,17.99
2023-04-27T23:15:59.652Z,17.95
2023-04-27T23:18:28.545Z,17.91
2023-04-27T23:20:56.064Z,17.95
2023-04-27T23:23:24.027Z,18.14
2023-04-27T23:25:51.587Z,17.92
2023-04-27T23:28:19.694Z,18.11
2023-04-27T23:30:56.910Z,18.04
2023-04-27T23:33:24.854Z,18.22
2023-04-27T23:35:53.313Z,18.25
2023-04-27T23:38:23.195Z,17.87
2023-04-27T23:40:50.775Z,17.81
2023-04-27T23:43:18.615Z,17.88
2023-04-27T23:45:52.883Z,17.72
2023-04-27T23:48:21.862Z,17.90
2023-04-27T23:50:49.595Z,17.90
2023-04-27T23:53:18.419Z,18.02
2023-04-27T23:55:45.946Z,17.73
2023-04-27T23:58:13.728Z,17.82
